sensor_id;sensor_type;location;lat;lon;timestamp;P1;durP1;ratioP1;P2;durP2;ratioP2
38851;SDS011;24605;50.092;9.182;2023-05-07T00:01:18;3.03;;;1.40;;
38851;SDS011;24605;50.092;9.182;2023-05-07T00:03:46;3.78;;;1.48;;
38851;SDS011;24605;50.092;9.182;2023-05-07T00:06:13;3.50;;;1.67;;
38851;SDS011;24605;50.092;9.182;2023-05-07T00:08:40;3.28;;;1.25;;
38851;SDS011;24605;50.092;9.182;2023-05-07T00:11:07;4.22;;;1.45;;
38851;SDS011;24605;50.092;9.182;2023-05-07T00:13:33;5.20;;;1.73;;
38851;SDS011;24605;50.092;9.182;2023-05-07T00:16:00;4.50;;;1.60;;
38851;SDS011;24605;50.092;9.182;2023-05-07T00:18:27;4.03;;;1.40;;
38851;SDS011;24605;50.092;9.182;2023-05-07T00:20:55;5.05;;;1.58;;
38851;SDS011;24605;50.092;9.182;2023-05-07T00:23:21;4.55;;;1.42;;
38851;SDS011;24605;50.092;9.182;2023-05-07T00:25:48;3.20;;;1.35;;
38851;SDS011;24605;50.092;9.182;2023-05-07T00:28:15;4.13;;;1.48;;
38851;SDS011;24605;50.092;9.182;2023-05-07T00:30:41;3.17;;;1.30;;
38851;SDS011;24605;50.092;9.182;2023-05-07T00:33:07;3.45;;;1.30;;
38851;SDS011;24605;50.092;9.182;2023-05-07T00:35:34;5.70;;;1.52;;
38851;SDS011;24605;50.092;9.182;2023-05-07T00:38:02;2.83;;;1.50;;
38851;SDS011;24605;50.092;9.182;2023-05-07T00:40:28;5.03;;;1.77;;
38851;SDS011;24605;50.092;9.182;2023-05-07T00:42:54;3.40;;;1.40;;
38851;SDS011;24605;50.092;9.182;2023-05-07T00:45:23;4.78;;;1.40;;
38851;SDS011;24605;50.092;9.182;2023-05-07T00:47:53;3.53;;;1.50;;
38851;SDS011;24605;50.092;9.182;2023-05-07T00:50:21;2.88;;;1.33;;
38851;SDS011;24605;50.092;9.182;2023-05-07T00:52:48;2.83;;;1.48;;
38851;SDS011;24605;50.092;9.182;2023-05-07T00:55:16;3.30;;;1.30;;
38851;SDS011;24605;50.092;9.182;2023-05-07T00:57:43;3.95;;;1.45;;
38851;SDS011;24605;50.092;9.182;2023-05-07T01:00:10;3.08;;;1.45;;
38851;SDS011;24605;50.092;9.182;2023-05-07T01:02:38;2.58;;;1.38;;
38851;SDS011;24605;50.092;9.182;2023-05-07T01:05:05;2.83;;;1.30;;
38851;SDS011;24605;50.092;9.182;2023-05-07T01:07:34;4.22;;;1.35;;
38851;SDS011;24605;50.092;9.182;2023-05-07T01:10:02;4.72;;;1.48;;
38851;SDS011;24605;50.092;9.182;2023-05-07T01:12:31;7.75;;;1.60;;
38851;SDS011;24605;50.092;9.182;2023-05-07T01:14:58;2.85;;;1.60;;
38851;SDS011;24605;50.092;9.182;2023-05-07T01:17:25;5.85;;;1.55;;
38851;SDS011;24605;50.092;9.182;2023-05-07T01:19:51;3.05;;;1.55;;
38851;SDS011;24605;50.092;9.182;2023-05-07T01:22:23;3.67;;;1.52;;
38851;SDS011;24605;50.092;9.182;2023-05-07T01:24:56;3.85;;;1.30;;
38851;SDS011;24605;50.092;9.182;2023-05-07T01:27:24;3.17;;;1.48;;
38851;SDS011;24605;50.092;9.182;2023-05-07T01:29:51;4.75;;;1.60;;
38851;SDS011;24605;50.092;9.182;2023-05-07T01:32:17;3.85;;;1.50;;
38851;SDS011;24605;50.092;9.182;2023-05-07T01:34:47;4.03;;;1.60;;
38851;SDS011;24605;50.092;9.182;2023-05-07T01:37:16;2.67;;;1.55;;
38851;SDS011;24605;50.092;9.182;2023-05-07T01:39:44;3.05;;;1.30;;
38851;SDS011;24605;50.092;9.182;2023-05-07T01:42:11;3.30;;;1.67;;
38851;SDS011;24605;50.092;9.182;2023-05-07T01:44:40;2.00;;;1.38;;
38851;SDS011;24605;50.092;9.182;2023-05-07T01:47:07;3.13;;;1.50;;
38851;SDS011;24605;50.092;9.182;2023-05-07T01:49:35;5.35;;;1.60;;
38851;SDS011;24605;50.092;9.182;2023-05-07T01:52:01;3.15;;;1.38;;
38851;SDS011;24605;50.092;9.182;2023-05-07T01:54:28;3.03;;;1.40;;
38851;SDS011;24605;50.092;9.182;2023-05-07T01:56:57;4.20;;;1.65;;
38851;SDS011;24605;50.092;9.182;2023-05-07T01:59:23;6.13;;;1.63;;
38851;SDS011;24605;50.092;9.182;2023-05-07T02:01:50;3.33;;;1.48;;
38851;SDS011;24605;50.092;9.182;2023-05-07T02:04:16;6.63;;;1.80;;
38851;SDS011;24605;50.092;9.182;2023-05-07T02:06:43;5.53;;;1.65;;
38851;SDS011;24605;50.092;9.182;2023-05-07T02:09:09;4.60;;;1.80;;
38851;SDS011;24605;50.092;9.182;2023-05-07T02:11:36;3.95;;;1.60;;
38851;SDS011;24605;50.092;9.182;2023-05-07T02:14:03;3.50;;;1.80;;
38851;SDS011;24605;50.092;9.182;2023-05-07T02:16:30;4.72;;;1.88;;
38851;SDS011;24605;50.092;9.182;2023-05-07T02:18:56;2.72;;;1.60;;
38851;SDS011;24605;50.092;9.182;2023-05-07T02:21:23;3.97;;;1.90;;
38851;SDS011;24605;50.092;9.182;2023-05-07T02:23:50;3.83;;;1.60;;
38851;SDS011;24605;50.092;9.182;2023-05-07T02:26:16;3.22;;;1.75;;
38851;SDS011;24605;50.092;9.182;2023-05-07T02:28:43;4.40;;;1.85;;
38851;SDS011;24605;50.092;9.182;2023-05-07T02:31:10;4.05;;;1.75;;
38851;SDS011;24605;50.092;9.182;2023-05-07T02:33:37;4.03;;;1.77;;
38851;SDS011;24605;50.092;9.182;2023-05-07T02:36:07;6.57;;;2.20;;
38851;SDS011;24605;50.092;9.182;2023-05-07T02:38:34;3.03;;;1.70;;
38851;SDS011;24605;50.092;9.182;2023-05-07T02:41:00;3.97;;;2.00;;
38851;SDS011;24605;50.092;9.182;2023-05-07T02:43:27;4.82;;;2.00;;
38851;SDS011;24605;50.092;9.182;2023-05-07T02:45:59;6.88;;;1.90;;
38851;SDS011;24605;50.092;9.182;2023-05-07T02:48:28;6.72;;;1.75;;
38851;SDS011;24605;50.092;9.182;2023-05-07T02:50:54;3.92;;;1.75;;
38851;SDS011;24605;50.092;9.182;2023-05-07T02:53:21;5.50;;;1.80;;
38851;SDS011;24605;50.092;9.182;2023-05-07T02:55:47;5.53;;;1.67;;
38851;SDS011;24605;50.092;9.182;2023-05-07T02:58:14;3.45;;;1.80;;
38851;SDS011;24605;50.092;9.182;2023-05-07T03:00:40;3.00;;;1.50;;
38851;SDS011;24605;50.092;9.182;2023-05-07T03:03:07;4.60;;;1.92;;
38851;SDS011;24605;50.092;9.182;2023-05-07T03:05:34;4.65;;;2.22;;
38851;SDS011;24605;50.092;9.182;2023-05-07T03:08:01;3.38;;;1.80;;
38851;SDS011;24605;50.092;9.182;2023-05-07T03:10:27;4.93;;;1.85;;
38851;SDS011;24605;50.092;9.182;2023-05-07T03:12:54;3.22;;;1.70;;
38851;SDS011;24605;50.092;9.182;2023-05-07T03:15:20;5.05;;;1.90;;
38851;SDS011;24605;50.092;9.182;2023-05-07T03:17:47;3.90;;;1.98;;
38851;SDS011;24605;50.092;9.182;2023-05-07T03:20:17;2.95;;;1.90;;
38851;SDS011;24605;50.092;9.182;2023-05-07T03:22:44;6.55;;;2.20;;
38851;SDS011;24605;50.092;9.182;2023-05-07T03:25:11;4.95;;;1.98;;
38851;SDS011;24605;50.092;9.182;2023-05-07T03:27:39;3.85;;;2.17;;
38851;SDS011;24605;50.092;9.182;2023-05-07T03:30:07;3.30;;;1.88;;
38851;SDS011;24605;50.092;9.182;2023-05-07T03:32:34;4.07;;;2.00;;
38851;SDS011;24605;50.092;9.182;2023-05-07T03:35:04;3.90;;;1.83;;
38851;SDS011;24605;50.092;9.182;2023-05-07T03:37:31;3.92;;;2.15;;
38851;SDS011;24605;50.092;9.182;2023-05-07T03:39:59;4.72;;;2.10;;
38851;SDS011;24605;50.092;9.182;2023-05-07T03:42:25;5.18;;;2.63;;
38851;SDS011;24605;50.092;9.182;2023-05-07T03:44:52;3.45;;;2.03;;
38851;SDS011;24605;50.092;9.182;2023-05-07T03:47:18;3.35;;;1.92;;
38851;SDS011;24605;50.092;9.182;2023-05-07T03:49:45;4.35;;;2.20;;
38851;SDS011;24605;50.092;9.182;2023-05-07T03:52:11;4.88;;;2.42;;
38851;SDS011;24605;50.092;9.182;2023-05-07T03:54:38;3.83;;;2.28;;
38851;SDS011;24605;50.092;9.182;2023-05-07T03:57:05;4.03;;;1.98;;
38851;SDS011;24605;50.092;9.182;2023-05-07T03:59:32;5.20;;;2.47;;
38851;SDS011;24605;50.092;9.182;2023-05-07T04:01:58;7.50;;;2.50;;
38851;SDS011;24605;50.092;9.182;2023-05-07T04:04:25;4.78;;;2.50;;
38851;SDS011;24605;50.092;9.182;2023-05-07T04:06:51;4.30;;;2.70;;
38851;SDS011;24605;50.092;9.182;2023-05-07T04:09:18;4.70;;;2.63;;
38851;SDS011;24605;50.092;9.182;2023-05-07T04:11:45;8.25;;;2.80;;
38851;SDS011;24605;50.092;9.182;2023-05-07T04:14:12;5.75;;;2.75;;
38851;SDS011;24605;50.092;9.182;2023-05-07T04:16:39;4.55;;;2.67;;
38851;SDS011;24605;50.092;9.182;2023-05-07T04:19:07;5.93;;;2.60;;
38851;SDS011;24605;50.092;9.182;2023-05-07T04:21:34;6.85;;;2.78;;
38851;SDS011;24605;50.092;9.182;2023-05-07T04:24:00;4.68;;;3.00;;
38851;SDS011;24605;50.092;9.182;2023-05-07T04:26:27;4.32;;;2.75;;
38851;SDS011;24605;50.092;9.182;2023-05-07T04:28:53;4.70;;;2.70;;
38851;SDS011;24605;50.092;9.182;2023-05-07T04:31:21;3.45;;;2.55;;
38851;SDS011;24605;50.092;9.182;2023-05-07T04:33:47;4.93;;;2.90;;
38851;SDS011;24605;50.092;9.182;2023-05-07T04:36:14;4.28;;;2.83;;
38851;SDS011;24605;50.092;9.182;2023-05-07T04:38:40;4.50;;;2.80;;
38851;SDS011;24605;50.092;9.182;2023-05-07T04:41:08;4.65;;;2.90;;
38851;SDS011;24605;50.092;9.182;2023-05-07T04:43:35;5.97;;;3.22;;
38851;SDS011;24605;50.092;9.182;2023-05-07T04:46:01;5.53;;;2.60;;
38851;SDS011;24605;50.092;9.182;2023-05-07T04:48:29;6.20;;;3.20;;
38851;SDS011;24605;50.092;9.182;2023-05-07T04:50:55;5.18;;;2.95;;
38851;SDS011;24605;50.092;9.182;2023-05-07T04:53:22;4.75;;;3.10;;
38851;SDS011;24605;50.092;9.182;2023-05-07T04:55:48;5.22;;;3.20;;
38851;SDS011;24605;50.092;9.182;2023-05-07T04:58:14;4.70;;;3.25;;
38851;SDS011;24605;50.092;9.182;2023-05-07T05:00:44;5.55;;;3.53;;
38851;SDS011;24605;50.092;9.182;2023-05-07T05:03:11;4.72;;;3.28;;
38851;SDS011;24605;50.092;9.182;2023-05-07T05:05:39;4.75;;;3.10;;
38851;SDS011;24605;50.092;9.182;2023-05-07T05:08:06;4.85;;;2.90;;
38851;SDS011;24605;50.092;9.182;2023-05-07T05:10:32;7.47;;;3.47;;
38851;SDS011;24605;50.092;9.182;2023-05-07T05:12:58;5.03;;;2.92;;
38851;SDS011;24605;50.092;9.182;2023-05-07T05:15:25;4.63;;;3.10;;
38851;SDS011;24605;50.092;9.182;2023-05-07T05:17:51;5.30;;;3.22;;
38851;SDS011;24605;50.092;9.182;2023-05-07T05:20:18;6.43;;;3.92;;
38851;SDS011;24605;50.092;9.182;2023-05-07T05:22:46;6.47;;;3.58;;
38851;SDS011;24605;50.092;9.182;2023-05-07T05:25:12;6.13;;;3.70;;
38851;SDS011;24605;50.092;9.182;2023-05-07T05:27:38;5.53;;;3.78;;
38851;SDS011;24605;50.092;9.182;2023-05-07T05:30:05;5.72;;;3.70;;
38851;SDS011;24605;50.092;9.182;2023-05-07T05:32:33;5.80;;;3.47;;
38851;SDS011;24605;50.092;9.182;2023-05-07T05:34:59;5.80;;;3.97;;
38851;SDS011;24605;50.092;9.182;2023-05-07T05:37:25;5.18;;;3.70;;
38851;SDS011;24605;50.092;9.182;2023-05-07T05:39:54;5.72;;;4.05;;
38851;SDS011;24605;50.092;9.182;2023-05-07T05:42:20;7.03;;;3.50;;
38851;SDS011;24605;50.092;9.182;2023-05-07T05:44:47;6.95;;;3.58;;
38851;SDS011;24605;50.092;9.182;2023-05-07T05:47:13;6.80;;;3.80;;
38851;SDS011;24605;50.092;9.182;2023-05-07T05:49:40;6.15;;;3.85;;
38851;SDS011;24605;50.092;9.182;2023-05-07T05:52:08;6.32;;;3.60;;
38851;SDS011;24605;50.092;9.182;2023-05-07T05:54:34;6.03;;;3.85;;
38851;SDS011;24605;50.092;9.182;2023-05-07T05:57:02;11.27;;;3.80;;
38851;SDS011;24605;50.092;9.182;2023-05-07T05:59:29;4.70;;;3.58;;
38851;SDS011;24605;50.092;9.182;2023-05-07T06:02:07;5.75;;;4.05;;
38851;SDS011;24605;50.092;9.182;2023-05-07T06:04:34;6.85;;;3.97;;
38851;SDS011;24605;50.092;9.182;2023-05-07T06:07:00;6.68;;;4.15;;
38851;SDS011;24605;50.092;9.182;2023-05-07T06:09:26;6.28;;;3.80;;
38851;SDS011;24605;50.092;9.182;2023-05-07T06:11:56;5.32;;;3.90;;
38851;SDS011;24605;50.092;9.182;2023-05-07T06:14:24;6.07;;;3.88;;
38851;SDS011;24605;50.092;9.182;2023-05-07T06:16:50;6.13;;;3.70;;
38851;SDS011;24605;50.092;9.182;2023-05-07T06:19:26;5.68;;;3.65;;
38851;SDS011;24605;50.092;9.182;2023-05-07T06:21:53;5.40;;;4.10;;
38851;SDS011;24605;50.092;9.182;2023-05-07T06:24:21;4.97;;;3.47;;
38851;SDS011;24605;50.092;9.182;2023-05-07T06:26:48;5.20;;;3.60;;
38851;SDS011;24605;50.092;9.182;2023-05-07T06:29:15;5.35;;;3.58;;
38851;SDS011;24605;50.092;9.182;2023-05-07T06:31:42;6.35;;;3.75;;
38851;SDS011;24605;50.092;9.182;2023-05-07T06:34:09;5.60;;;3.65;;
38851;SDS011;24605;50.092;9.182;2023-05-07T06:36:39;5.40;;;3.75;;
38851;SDS011;24605;50.092;9.182;2023-05-07T06:39:05;6.82;;;4.00;;
38851;SDS011;24605;50.092;9.182;2023-05-07T06:41:32;6.13;;;4.40;;
38851;SDS011;24605;50.092;9.182;2023-05-07T06:43:59;6.13;;;4.50;;
38851;SDS011;24605;50.092;9.182;2023-05-07T06:46:25;5.68;;;4.00;;
38851;SDS011;24605;50.092;9.182;2023-05-07T06:48:53;7.00;;;4.28;;
38851;SDS011;24605;50.092;9.182;2023-05-07T06:51:21;4.88;;;3.65;;
38851;SDS011;24605;50.092;9.182;2023-05-07T06:53:48;6.57;;;4.30;;
38851;SDS011;24605;50.092;9.182;2023-05-07T06:56:17;5.95;;;3.83;;
38851;SDS011;24605;50.092;9.182;2023-05-07T06:58:43;8.15;;;4.20;;
38851;SDS011;24605;50.092;9.182;2023-05-07T07:01:10;5.82;;;3.92;;
38851;SDS011;24605;50.092;9.182;2023-05-07T07:03:36;6.05;;;4.03;;
38851;SDS011;24605;50.092;9.182;2023-05-07T07:06:04;5.47;;;4.05;;
38851;SDS011;24605;50.092;9.182;2023-05-07T07:08:31;6.97;;;4.03;;
38851;SDS011;24605;50.092;9.182;2023-05-07T07:10:57;5.68;;;3.90;;
38851;SDS011;24605;50.092;9.182;2023-05-07T07:13:24;8.35;;;4.45;;
38851;SDS011;24605;50.092;9.182;2023-05-07T07:15:51;5.07;;;3.88;;
38851;SDS011;24605;50.092;9.182;2023-05-07T07:18:17;5.18;;;3.53;;
38851;SDS011;24605;50.092;9.182;2023-05-07T07:20:44;5.07;;;3.33;;
38851;SDS011;24605;50.092;9.182;2023-05-07T07:23:12;5.50;;;4.00;;
38851;SDS011;24605;50.092;9.182;2023-05-07T07:25:38;5.95;;;3.88;;
38851;SDS011;24605;50.092;9.182;2023-05-07T07:28:05;6.70;;;4.10;;
38851;SDS011;24605;50.092;9.182;2023-05-07T07:30:31;9.48;;;3.88;;
38851;SDS011;24605;50.092;9.182;2023-05-07T07:32:58;5.88;;;4.07;;
38851;SDS011;24605;50.092;9.182;2023-05-07T07:35:27;6.63;;;4.20;;
38851;SDS011;24605;50.092;9.182;2023-05-07T07:37:53;5.45;;;3.85;;
38851;SDS011;24605;50.092;9.182;2023-05-07T07:40:21;6.68;;;4.60;;
38851;SDS011;24605;50.092;9.182;2023-05-07T07:42:48;7.28;;;4.13;;
38851;SDS011;24605;50.092;9.182;2023-05-07T07:45:14;6.03;;;4.03;;
38851;SDS011;24605;50.092;9.182;2023-05-07T07:47:41;6.18;;;4.18;;
38851;SDS011;24605;50.092;9.182;2023-05-07T07:50:07;6.03;;;4.28;;
38851;SDS011;24605;50.092;9.182;2023-05-07T07:52:35;7.10;;;4.25;;
38851;SDS011;24605;50.092;9.182;2023-05-07T07:55:01;5.93;;;4.03;;
38851;SDS011;24605;50.092;9.182;2023-05-07T07:57:29;5.20;;;3.65;;
38851;SDS011;24605;50.092;9.182;2023-05-07T07:59:56;8.15;;;4.43;;
38851;SDS011;24605;50.092;9.182;2023-05-07T08:02:22;5.32;;;4.10;;
38851;SDS011;24605;50.092;9.182;2023-05-07T08:04:49;7.63;;;4.13;;
38851;SDS011;24605;50.092;9.182;2023-05-07T08:07:15;6.32;;;4.35;;
38851;SDS011;24605;50.092;9.182;2023-05-07T08:09:43;5.50;;;4.07;;
38851;SDS011;24605;50.092;9.182;2023-05-07T08:12:10;5.30;;;4.20;;
38851;SDS011;24605;50.092;9.182;2023-05-07T08:14:38;7.95;;;4.20;;
38851;SDS011;24605;50.092;9.182;2023-05-07T08:17:04;8.07;;;4.50;;
38851;SDS011;24605;50.092;9.182;2023-05-07T08:19:31;7.93;;;4.68;;
38851;SDS011;24605;50.092;9.182;2023-05-07T08:21:58;5.75;;;3.85;;
38851;SDS011;24605;50.092;9.182;2023-05-07T08:24:25;6.65;;;4.10;;
38851;SDS011;24605;50.092;9.182;2023-05-07T08:26:51;5.65;;;3.90;;
38851;SDS011;24605;50.092;9.182;2023-05-07T08:29:18;6.32;;;4.13;;
38851;SDS011;24605;50.092;9.182;2023-05-07T08:31:46;6.78;;;3.95;;
38851;SDS011;24605;50.092;9.182;2023-05-07T08:34:12;5.75;;;4.03;;
38851;SDS011;24605;50.092;9.182;2023-05-07T08:36:39;7.32;;;3.97;;
38851;SDS011;24605;50.092;9.182;2023-05-07T08:39:06;5.55;;;3.95;;
38851;SDS011;24605;50.092;9.182;2023-05-07T08:41:34;7.38;;;4.20;;
38851;SDS011;24605;50.092;9.182;2023-05-07T08:44:01;6.28;;;4.18;;
38851;SDS011;24605;50.092;9.182;2023-05-07T08:46:30;5.68;;;4.22;;
38851;SDS011;24605;50.092;9.182;2023-05-07T08:48:59;6.32;;;3.70;;
38851;SDS011;24605;50.092;9.182;2023-05-07T08:51:26;8.27;;;3.95;;
38851;SDS011;24605;50.092;9.182;2023-05-07T08:53:52;5.50;;;3.70;;
38851;SDS011;24605;50.092;9.182;2023-05-07T08:56:19;6.50;;;4.28;;
38851;SDS011;24605;50.092;9.182;2023-05-07T08:58:46;6.32;;;4.22;;
38851;SDS011;24605;50.092;9.182;2023-05-07T09:01:13;5.35;;;3.75;;
38851;SDS011;24605;50.092;9.182;2023-05-07T09:03:40;6.28;;;3.78;;
38851;SDS011;24605;50.092;9.182;2023-05-07T09:06:11;5.45;;;3.70;;
38851;SDS011;24605;50.092;9.182;2023-05-07T09:08:37;4.90;;;3.85;;
38851;SDS011;24605;50.092;9.182;2023-05-07T09:11:04;4.85;;;3.67;;
38851;SDS011;24605;50.092;9.182;2023-05-07T09:13:30;9.82;;;4.10;;
38851;SDS011;24605;50.092;9.182;2023-05-07T09:15:57;5.93;;;3.85;;
38851;SDS011;24605;50.092;9.182;2023-05-07T09:18:23;6.80;;;3.78;;
38851;SDS011;24605;50.092;9.182;2023-05-07T09:20:50;8.75;;;4.03;;
38851;SDS011;24605;50.092;9.182;2023-05-07T09:23:18;6.57;;;3.60;;
38851;SDS011;24605;50.092;9.182;2023-05-07T09:25:44;5.30;;;3.88;;
38851;SDS011;24605;50.092;9.182;2023-05-07T09:28:11;6.40;;;4.05;;
38851;SDS011;24605;50.092;9.182;2023-05-07T09:30:37;7.40;;;4.07;;
38851;SDS011;24605;50.092;9.182;2023-05-07T09:33:04;7.70;;;4.30;;
38851;SDS011;24605;50.092;9.182;2023-05-07T09:35:30;5.07;;;3.67;;
38851;SDS011;24605;50.092;9.182;2023-05-07T09:37:57;5.45;;;3.63;;
38851;SDS011;24605;50.092;9.182;2023-05-07T09:40:27;5.22;;;3.58;;
38851;SDS011;24605;50.092;9.182;2023-05-07T09:42:54;5.40;;;3.30;;
38851;SDS011;24605;50.092;9.182;2023-05-07T09:45:21;5.43;;;3.85;;
38851;SDS011;24605;50.092;9.182;2023-05-07T09:47:49;7.22;;;3.45;;
38851;SDS011;24605;50.092;9.182;2023-05-07T09:50:19;5.75;;;3.97;;
38851;SDS011;24605;50.092;9.182;2023-05-07T09:52:48;5.10;;;3.40;;
38851;SDS011;24605;50.092;9.182;2023-05-07T09:55:15;7.20;;;3.55;;
38851;SDS011;24605;50.092;9.182;2023-05-07T09:57:43;4.93;;;3.40;;
38851;SDS011;24605;50.092;9.182;2023-05-07T10:00:11;4.97;;;3.30;;
38851;SDS011;24605;50.092;9.182;2023-05-07T10:02:39;5.18;;;3.30;;
38851;SDS011;24605;50.092;9.182;2023-05-07T10:05:11;5.47;;;3.00;;
38851;SDS011;24605;50.092;9.182;2023-05-07T10:07:38;5.05;;;3.00;;
38851;SDS011;24605;50.092;9.182;2023-05-07T10:10:06;5.82;;;3.55;;
38851;SDS011;24605;50.092;9.182;2023-05-07T10:12:33;5.35;;;3.15;;
38851;SDS011;24605;50.092;9.182;2023-05-07T10:15:05;4.40;;;2.58;;
38851;SDS011;24605;50.092;9.182;2023-05-07T10:17:33;3.97;;;2.80;;
38851;SDS011;24605;50.092;9.182;2023-05-07T10:20:01;6.50;;;2.80;;
38851;SDS011;24605;50.092;9.182;2023-05-07T10:22:29;4.30;;;2.92;;
38851;SDS011;24605;50.092;9.182;2023-05-07T10:25:03;4.38;;;2.80;;
38851;SDS011;24605;50.092;9.182;2023-05-07T10:27:32;6.43;;;2.80;;
38851;SDS011;24605;50.092;9.182;2023-05-07T10:30:00;5.82;;;3.13;;
38851;SDS011;24605;50.092;9.182;2023-05-07T10:32:38;5.25;;;3.00;;
38851;SDS011;24605;50.092;9.182;2023-05-07T10:35:12;5.85;;;3.17;;
38851;SDS011;24605;50.092;9.182;2023-05-07T10:37:42;6.88;;;3.50;;
38851;SDS011;24605;50.092;9.182;2023-05-07T10:40:10;4.95;;;3.00;;
38851;SDS011;24605;50.092;9.182;2023-05-07T10:42:37;5.72;;;3.20;;
38851;SDS011;24605;50.092;9.182;2023-05-07T10:45:12;5.82;;;3.63;;
38851;SDS011;24605;50.092;9.182;2023-05-07T10:50:38;4.50;;;3.40;;
38851;SDS011;24605;50.092;9.182;2023-05-07T10:53:24;7.45;;;3.40;;
38851;SDS011;24605;50.092;9.182;2023-05-07T11:01:54;6.15;;;3.13;;
38851;SDS011;24605;50.092;9.182;2023-05-07T11:04:22;4.03;;;2.30;;
38851;SDS011;24605;50.092;9.182;2023-05-07T11:07:13;5.35;;;2.78;;
38851;SDS011;24605;50.092;9.182;2023-05-07T11:10:04;4.72;;;2.80;;
38851;SDS011;24605;50.092;9.182;2023-05-07T11:12:48;3.65;;;2.65;;
38851;SDS011;24605;50.092;9.182;2023-05-07T11:15:34;5.35;;;3.20;;
38851;SDS011;24605;50.092;9.182;2023-05-07T11:18:11;5.40;;;3.30;;
38851;SDS011;24605;50.092;9.182;2023-05-07T11:20:50;5.95;;;2.80;;
38851;SDS011;24605;50.092;9.182;2023-05-07T11:26:26;3.58;;;2.20;;
38851;SDS011;24605;50.092;9.182;2023-05-07T11:28:54;4.40;;;2.22;;
38851;SDS011;24605;50.092;9.182;2023-05-07T11:31:22;3.05;;;1.92;;
38851;SDS011;24605;50.092;9.182;2023-05-07T11:33:52;4.90;;;2.55;;
38851;SDS011;24605;50.092;9.182;2023-05-07T11:36:20;3.30;;;2.10;;
38851;SDS011;24605;50.092;9.182;2023-05-07T11:38:48;5.35;;;2.30;;
38851;SDS011;24605;50.092;9.182;2023-05-07T11:41:15;5.38;;;2.25;;
38851;SDS011;24605;50.092;9.182;2023-05-07T11:43:55;4.90;;;2.22;;
38851;SDS011;24605;50.092;9.182;2023-05-07T11:46:22;4.20;;;1.98;;
38851;SDS011;24605;50.092;9.182;2023-05-07T11:48:49;3.55;;;2.00;;
38851;SDS011;24605;50.092;9.182;2023-05-07T11:51:19;3.75;;;2.20;;
38851;SDS011;24605;50.092;9.182;2023-05-07T11:53:46;5.18;;;2.30;;
38851;SDS011;24605;50.092;9.182;2023-05-07T11:56:14;4.22;;;1.88;;
38851;SDS011;24605;50.092;9.182;2023-05-07T11:58:43;3.72;;;2.00;;
38851;SDS011;24605;50.092;9.182;2023-05-07T12:01:11;4.68;;;2.05;;
38851;SDS011;24605;50.092;9.182;2023-05-07T12:03:39;4.55;;;2.30;;
38851;SDS011;24605;50.092;9.182;2023-05-07T12:06:08;4.18;;;2.25;;
38851;SDS011;24605;50.092;9.182;2023-05-07T12:08:37;3.47;;;1.98;;
38851;SDS011;24605;50.092;9.182;2023-05-07T12:11:09;3.30;;;2.15;;
38851;SDS011;24605;50.092;9.182;2023-05-07T12:13:36;4.95;;;1.75;;
38851;SDS011;24605;50.092;9.182;2023-05-07T12:16:03;4.18;;;1.98;;
38851;SDS011;24605;50.092;9.182;2023-05-07T12:18:32;5.47;;;2.70;;
38851;SDS011;24605;50.092;9.182;2023-05-07T12:20:59;3.50;;;2.00;;
38851;SDS011;24605;50.092;9.182;2023-05-07T12:23:26;3.83;;;1.70;;
38851;SDS011;24605;50.092;9.182;2023-05-07T12:25:54;2.83;;;1.63;;
38851;SDS011;24605;50.092;9.182;2023-05-07T12:28:20;2.25;;;1.33;;
38851;SDS011;24605;50.092;9.182;2023-05-07T12:30:48;4.53;;;1.80;;
38851;SDS011;24605;50.092;9.182;2023-05-07T12:33:16;4.55;;;1.92;;
38851;SDS011;24605;50.092;9.182;2023-05-07T12:35:46;3.03;;;1.73;;
38851;SDS011;24605;50.092;9.182;2023-05-07T12:38:15;4.20;;;1.83;;
38851;SDS011;24605;50.092;9.182;2023-05-07T12:40:43;2.28;;;1.50;;
38851;SDS011;24605;50.092;9.182;2023-05-07T12:43:16;3.63;;;1.80;;
38851;SDS011;24605;50.092;9.182;2023-05-07T12:45:44;4.60;;;2.10;;
38851;SDS011;24605;50.092;9.182;2023-05-07T12:48:11;2.92;;;1.60;;
38851;SDS011;24605;50.092;9.182;2023-05-07T12:50:38;4.63;;;1.90;;
38851;SDS011;24605;50.092;9.182;2023-05-07T12:53:05;3.08;;;1.73;;
38851;SDS011;24605;50.092;9.182;2023-05-07T12:55:39;5.22;;;1.80;;
38851;SDS011;24605;50.092;9.182;2023-05-07T12:58:06;3.95;;;1.92;;
38851;SDS011;24605;50.092;9.182;2023-05-07T13:00:35;2.95;;;1.60;;
38851;SDS011;24605;50.092;9.182;2023-05-07T13:03:02;4.15;;;1.83;;
38851;SDS011;24605;50.092;9.182;2023-05-07T13:05:29;3.63;;;1.85;;
38851;SDS011;24605;50.092;9.182;2023-05-07T13:07:56;4.28;;;1.70;;
38851;SDS011;24605;50.092;9.182;2023-05-07T13:10:23;3.30;;;1.77;;
38851;SDS011;24605;50.092;9.182;2023-05-07T13:12:50;2.55;;;1.70;;
38851;SDS011;24605;50.092;9.182;2023-05-07T13:15:17;2.40;;;1.50;;
38851;SDS011;24605;50.092;9.182;2023-05-07T13:17:45;2.90;;;1.27;;
38851;SDS011;24605;50.092;9.182;2023-05-07T13:20:12;3.90;;;1.65;;
38851;SDS011;24605;50.092;9.182;2023-05-07T13:22:39;2.38;;;1.20;;
38851;SDS011;24605;50.092;9.182;2023-05-07T13:25:06;3.35;;;1.33;;
38851;SDS011;24605;50.092;9.182;2023-05-07T13:27:33;2.88;;;1.40;;
38851;SDS011;24605;50.092;9.182;2023-05-07T13:30:01;3.15;;;1.30;;
38851;SDS011;24605;50.092;9.182;2023-05-07T13:32:29;5.15;;;1.58;;
38851;SDS011;24605;50.092;9.182;2023-05-07T13:34:57;3.90;;;1.30;;
38851;SDS011;24605;50.092;9.182;2023-05-07T13:37:24;2.53;;;1.50;;
38851;SDS011;24605;50.092;9.182;2023-05-07T13:39:50;3.30;;;1.50;;
38851;SDS011;24605;50.092;9.182;2023-05-07T13:42:17;2.17;;;1.30;;
38851;SDS011;24605;50.092;9.182;2023-05-07T13:44:43;3.45;;;1.70;;
38851;SDS011;24605;50.092;9.182;2023-05-07T13:47:10;3.70;;;1.67;;
38851;SDS011;24605;50.092;9.182;2023-05-07T13:49:37;2.40;;;1.33;;
38851;SDS011;24605;50.092;9.182;2023-05-07T13:52:04;4.43;;;1.55;;
38851;SDS011;24605;50.092;9.182;2023-05-07T13:54:31;2.35;;;1.20;;
38851;SDS011;24605;50.092;9.182;2023-05-07T13:56:57;2.00;;;1.20;;
38851;SDS011;24605;50.092;9.182;2023-05-07T13:59:24;3.15;;;1.33;;
38851;SDS011;24605;50.092;9.182;2023-05-07T14:01:50;2.20;;;1.30;;
38851;SDS011;24605;50.092;9.182;2023-05-07T14:04:17;2.17;;;1.20;;
38851;SDS011;24605;50.092;9.182;2023-05-07T14:06:43;1.85;;;1.05;;
38851;SDS011;24605;50.092;9.182;2023-05-07T14:09:11;1.83;;;0.90;;
38851;SDS011;24605;50.092;9.182;2023-05-07T14:11:38;2.78;;;1.00;;
38851;SDS011;24605;50.092;9.182;2023-05-07T14:14:05;3.00;;;1.17;;
38851;SDS011;24605;50.092;9.182;2023-05-07T14:16:31;3.45;;;1.10;;
38851;SDS011;24605;50.092;9.182;2023-05-07T14:18:58;4.07;;;1.23;;
38851;SDS011;24605;50.092;9.182;2023-05-07T14:21:24;3.10;;;1.20;;
38851;SDS011;24605;50.092;9.182;2023-05-07T14:23:51;2.63;;;1.20;;
38851;SDS011;24605;50.092;9.182;2023-05-07T14:26:18;3.00;;;1.40;;
38851;SDS011;24605;50.092;9.182;2023-05-07T14:28:45;2.92;;;1.27;;
38851;SDS011;24605;50.092;9.182;2023-05-07T14:31:12;2.90;;;1.27;;
38851;SDS011;24605;50.092;9.182;2023-05-07T14:33:38;3.53;;;1.40;;
38851;SDS011;24605;50.092;9.182;2023-05-07T14:36:05;4.35;;;1.30;;
38851;SDS011;24605;50.092;9.182;2023-05-07T14:38:31;2.20;;;1.10;;
38851;SDS011;24605;50.092;9.182;2023-05-07T14:40:58;3.40;;;1.20;;
38851;SDS011;24605;50.092;9.182;2023-05-07T14:43:27;3.80;;;1.13;;
38851;SDS011;24605;50.092;9.182;2023-05-07T14:45:53;3.00;;;1.30;;
38851;SDS011;24605;50.092;9.182;2023-05-07T14:48:20;1.92;;;1.10;;
38851;SDS011;24605;50.092;9.182;2023-05-07T14:50:46;3.22;;;1.30;;
38851;SDS011;24605;50.092;9.182;2023-05-07T14:53:13;3.30;;;1.20;;
38851;SDS011;24605;50.092;9.182;2023-05-07T14:55:39;3.17;;;1.20;;
38851;SDS011;24605;50.092;9.182;2023-05-07T14:58:06;2.55;;;1.30;;
38851;SDS011;24605;50.092;9.182;2023-05-07T15:00:34;5.63;;;1.27;;
38851;SDS011;24605;50.092;9.182;2023-05-07T15:03:04;2.15;;;1.27;;